sensor_id;sensor_type;location;lat;lon;timestamp;pressure;altitude;pressure_sealevel;temperature;humidity
11692;BME280;33659;42.672;23.354;2023-02-19T00:00:56;94631.13;;;10.96;46.63
11692;BME280;33659;42.672;23.354;2023-02-19T00:03:22;94623.34;;;10.87;46.77
11692;BME280;33659;42.672;23.354;2023-02-19T00:05:49;94624.53;;;10.77;47.06
11692;BME280;33659;42.672;23.354;2023-02-19T00:08:16;94618.06;;;10.75;47.30
11692;BME280;33659;42.672;23.354;2023-02-19T00:10:42;94618.16;;;10.66;47.12
11692;BME280;33659;42.672;23.354;2023-02-19T00:13:10;94617.72;;;10.64;47.37
11692;BME280;33659;42.672;23.354;2023-02-19T00:15:37;94617.25;;;10.50;47.56
11692;BME280;33659;42.672;23.354;2023-02-19T00:18:04;94617.94;;;10.38;48.25
11692;BME280;33659;42.672;23.354;2023-02-19T00:20:31;94617.41;;;10.24;48.27
11692;BME280;33659;42.672;23.354;2023-02-19T00:22:57;94624.19;;;10.16;48.65
11692;BME280;33659;42.672;23.354;2023-02-19T00:25:24;94619.63;;;10.13;49.17
11692;BME280;33659;42.672;23.354;2023-02-19T00:27:51;94622.47;;;10.20;48.84
11692;BME280;33659;42.672;23.354;2023-02-19T00:30:19;94606.34;;;10.27;48.58
11692;BME280;33659;42.672;23.354;2023-02-19T00:32:49;94596.53;;;10.24;48.27
11692;BME280;33659;42.672;23.354;2023-02-19T00:35:16;94609.44;;;10.20;48.92
11692;BME280;33659;42.672;23.354;2023-02-19T00:37:42;94595.69;;;10.11;48.47
11692;BME280;33659;42.672;23.354;2023-02-19T00:40:09;94611.13;;;9.95;48.88
11692;BME280;33659;42.672;23.354;2023-02-19T00:42:36;94593.19;;;9.94;49.48
11692;BME280;33659;42.672;23.354;2023-02-19T00:45:03;94593.44;;;10.01;49.05
11692;BME280;33659;42.672;23.354;2023-02-19T00:47:31;94597.25;;;10.03;49.14
11692;BME280;33659;42.672;23.354;2023-02-19T00:49:58;94594.16;;;10.10;49.00
11692;BME280;33659;42.672;23.354;2023-02-19T00:52:24;94589.50;;;10.16;48.80
11692;BME280;33659;42.672;23.354;2023-02-19T00:54:51;94583.91;;;10.05;49.01
11692;BME280;33659;42.672;23.354;2023-02-19T00:57:18;94577.72;;;9.89;49.69
11692;BME280;33659;42.672;23.354;2023-02-19T00:59:44;94575.19;;;9.80;49.66
11692;BME280;33659;42.672;23.354;2023-02-19T01:02:11;94584.84;;;9.50;50.84
11692;BME280;33659;42.672;23.354;2023-02-19T01:04:39;94585.19;;;9.40;50.81
11692;BME280;33659;42.672;23.354;2023-02-19T01:07:06;94588.25;;;9.42;51.32
11692;BME280;33659;42.672;23.354;2023-02-19T01:09:32;94577.06;;;9.41;50.62
11692;BME280;33659;42.672;23.354;2023-02-19T01:11:59;94578.97;;;9.23;50.86
11692;BME280;33659;42.672;23.354;2023-02-19T01:14:26;94583.59;;;9.18;51.15
11692;BME280;33659;42.672;23.354;2023-02-19T01:16:53;94587.88;;;9.14;51.29
11692;BME280;33659;42.672;23.354;2023-02-19T01:19:19;94579.16;;;9.18;51.63
11692;BME280;33659;42.672;23.354;2023-02-19T01:21:47;94579.56;;;9.29;51.24
11692;BME280;33659;42.672;23.354;2023-02-19T01:24:14;94572.31;;;9.43;51.26
11692;BME280;33659;42.672;23.354;2023-02-19T01:26:41;94571.94;;;9.54;51.08
11692;BME280;33659;42.672;23.354;2023-02-19T01:29:08;94574.69;;;9.57;50.70
11692;BME280;33659;42.672;23.354;2023-02-19T01:31:35;94588.56;;;9.70;50.20
11692;BME280;33659;42.672;23.354;2023-02-19T01:34:02;94591.44;;;9.77;49.96
11692;BME280;33659;42.672;23.354;2023-02-19T01:36:32;94592.78;;;9.83;50.30
11692;BME280;33659;42.672;23.354;2023-02-19T01:39:03;94596.16;;;9.84;49.55
11692;BME280;33659;42.672;23.354;2023-02-19T01:41:31;94580.66;;;9.58;50.12
11692;BME280;33659;42.672;23.354;2023-02-19T01:44:00;94597.88;;;9.50;50.31
11692;BME280;33659;42.672;23.354;2023-02-19T01:46:28;94620.63;;;9.41;50.72
11692;BME280;33659;42.672;23.354;2023-02-19T01:48:57;94629.97;;;9.42;50.87
11692;BME280;33659;42.672;23.354;2023-02-19T01:51:25;94616.34;;;9.36;50.75
11692;BME280;33659;42.672;23.354;2023-02-19T01:53:56;94617.44;;;9.27;51.00
11692;BME280;33659;42.672;23.354;2023-02-19T01:56:26;94624.09;;;8.98;51.83
11692;BME280;33659;42.672;23.354;2023-02-19T01:58:54;94621.88;;;8.71;52.83
11692;BME280;33659;42.672;23.354;2023-02-19T02:01:20;94623.22;;;8.68;52.88
11692;BME280;33659;42.672;23.354;2023-02-19T02:03:48;94609.78;;;8.57;53.27
11692;BME280;33659;42.672;23.354;2023-02-19T02:06:19;94614.97;;;8.31;54.02
11692;BME280;33659;42.672;23.354;2023-02-19T02:08:49;94631.34;;;8.32;54.15
11692;BME280;33659;42.672;23.354;2023-02-19T02:11:37;94606.84;;;8.15;54.25
11692;BME280;33659;42.672;23.354;2023-02-19T02:14:05;94620.28;;;8.18;54.51
11692;BME280;33659;42.672;23.354;2023-02-19T02:16:40;94617.09;;;8.29;54.08
11692;BME280;33659;42.672;23.354;2023-02-19T02:19:26;94613.28;;;8.27;54.27
11692;BME280;33659;42.672;23.354;2023-02-19T02:22:04;94621.88;;;8.36;54.28
11692;BME280;33659;42.672;23.354;2023-02-19T02:27:56;94630.28;;;8.76;53.17
11692;BME280;33659;42.672;23.354;2023-02-19T02:30:38;94630.44;;;8.62;52.82
11692;BME280;33659;42.672;23.354;2023-02-19T02:33:24;94621.56;;;8.46;53.83
11692;BME280;33659;42.672;23.354;2023-02-19T02:35:56;94600.84;;;8.24;53.60
11692;BME280;33659;42.672;23.354;2023-02-19T02:38:27;94605.44;;;8.09;53.81
11692;BME280;33659;42.672;23.354;2023-02-19T02:40:55;94614.63;;;8.15;54.02
11692;BME280;33659;42.672;23.354;2023-02-19T02:43:22;94617.22;;;8.24;54.14
11692;BME280;33659;42.672;23.354;2023-02-19T02:45:50;94622.91;;;8.26;53.76
11692;BME280;33659;42.672;23.354;2023-02-19T02:48:26;94616.78;;;8.13;54.06
11692;BME280;33659;42.672;23.354;2023-02-19T02:50:59;94606.53;;;8.17;53.93
11692;BME280;33659;42.672;23.354;2023-02-19T02:53:31;94616.00;;;8.22;53.75
11692;BME280;33659;42.672;23.354;2023-02-19T02:56:17;94617.84;;;8.30;53.53
11692;BME280;33659;42.672;23.354;2023-02-19T02:58:45;94609.34;;;8.38;53.15
11692;BME280;33659;42.672;23.354;2023-02-19T03:01:18;94602.09;;;8.44;53.31
11692;BME280;33659;42.672;23.354;2023-02-19T03:04:06;94622.00;;;8.48;53.14
11692;BME280;33659;42.672;23.354;2023-02-19T03:06:36;94618.94;;;8.55;53.30
11692;BME280;33659;42.672;23.354;2023-02-19T03:09:08;94621.84;;;8.62;52.90
11692;BME280;33659;42.672;23.354;2023-02-19T03:11:37;94627.97;;;8.66;52.71
11692;BME280;33659;42.672;23.354;2023-02-19T03:14:26;94630.56;;;8.83;52.58
11692;BME280;33659;42.672;23.354;2023-02-19T03:17:18;94596.72;;;8.75;52.22
11692;BME280;33659;42.672;23.354;2023-02-19T03:20:06;94634.66;;;9.10;52.36
11692;BME280;33659;42.672;23.354;2023-02-19T03:22:35;94635.84;;;9.21;52.32
11692;BME280;33659;42.672;23.354;2023-02-19T03:25:08;94642.72;;;9.26;52.21
11692;BME280;33659;42.672;23.354;2023-02-19T03:27:54;94654.03;;;9.39;51.56
11692;BME280;33659;42.672;23.354;2023-02-19T03:30:25;94641.91;;;9.43;51.49
11692;BME280;33659;42.672;23.354;2023-02-19T03:32:57;94646.97;;;9.48;50.80
11692;BME280;33659;42.672;23.354;2023-02-19T03:35:26;94651.84;;;9.49;50.96
11692;BME280;33659;42.672;23.354;2023-02-19T03:38:00;94647.41;;;9.50;50.62
11692;BME280;33659;42.672;23.354;2023-02-19T03:40:35;94662.88;;;9.55;50.85
11692;BME280;33659;42.672;23.354;2023-02-19T03:43:13;94659.50;;;9.55;50.54
11692;BME280;33659;42.672;23.354;2023-02-19T03:45:46;94673.19;;;9.43;50.53
11692;BME280;33659;42.672;23.354;2023-02-19T03:48:24;94672.94;;;9.18;51.38
11692;BME280;33659;42.672;23.354;2023-02-19T03:51:02;94669.78;;;8.87;52.44
11692;BME280;33659;42.672;23.354;2023-02-19T03:53:33;94677.91;;;8.59;53.25
11692;BME280;33659;42.672;23.354;2023-02-19T03:56:07;94677.88;;;8.42;53.61
11692;BME280;33659;42.672;23.354;2023-02-19T03:58:41;94674.84;;;8.40;53.81
11692;BME280;33659;42.672;23.354;2023-02-19T04:01:14;94677.13;;;8.41;53.71
11692;BME280;33659;42.672;23.354;2023-02-19T04:03:46;94677.75;;;8.38;53.80
11692;BME280;33659;42.672;23.354;2023-02-19T04:06:18;94653.97;;;8.23;53.58
11692;BME280;33659;42.672;23.354;2023-02-19T04:08:49;94671.00;;;8.37;53.90
11692;BME280;33659;42.672;23.354;2023-02-19T04:11:19;94680.94;;;8.35;53.96
11692;BME280;33659;42.672;23.354;2023-02-19T04:13:52;94675.16;;;8.38;54.06
11692;BME280;33659;42.672;23.354;2023-02-19T04:16:23;94690.59;;;8.44;54.12
11692;BME280;33659;42.672;23.354;2023-02-19T04:18:56;94686.31;;;8.39;53.83
11692;BME280;33659;42.672;23.354;2023-02-19T04:21:24;94657.00;;;7.99;54.36
11692;BME280;33659;42.672;23.354;2023-02-19T04:23:56;94685.81;;;8.20;54.57
11692;BME280;33659;42.672;23.354;2023-02-19T04:26:25;94686.38;;;7.99;55.07
11692;BME280;33659;42.672;23.354;2023-02-19T04:28:53;94694.56;;;7.84;55.68
11692;BME280;33659;42.672;23.354;2023-02-19T04:31:20;94685.25;;;7.83;55.51
11692;BME280;33659;42.672;23.354;2023-02-19T04:33:46;94687.72;;;7.88;55.38
11692;BME280;33659;42.672;23.354;2023-02-19T04:36:14;94688.28;;;7.85;55.44
11692;BME280;33659;42.672;23.354;2023-02-19T04:38:41;94693.69;;;7.88;55.81
11692;BME280;33659;42.672;23.354;2023-02-19T04:41:08;94688.91;;;7.82;55.71
11692;BME280;33659;42.672;23.354;2023-02-19T04:43:34;94696.22;;;7.71;55.95
11692;BME280;33659;42.672;23.354;2023-02-19T04:46:01;94684.28;;;7.70;55.98
11692;BME280;33659;42.672;23.354;2023-02-19T04:48:28;94689.66;;;7.74;55.99
11692;BME280;33659;42.672;23.354;2023-02-19T04:50:55;94703.38;;;7.66;56.20
11692;BME280;33659;42.672;23.354;2023-02-19T04:53:23;94697.84;;;7.58;56.51
11692;BME280;33659;42.672;23.354;2023-02-19T04:55:50;94699.38;;;7.59;56.57
11692;BME280;33659;42.672;23.354;2023-02-19T04:58:18;94707.53;;;7.67;56.39
11692;BME280;33659;42.672;23.354;2023-02-19T05:00:45;94703.38;;;7.66;56.37
11692;BME280;33659;42.672;23.354;2023-02-19T05:03:12;94707.97;;;7.69;56.28
11692;BME280;33659;42.672;23.354;2023-02-19T05:05:38;94722.25;;;7.80;56.02
11692;BME280;33659;42.672;23.354;2023-02-19T05:08:05;94704.53;;;7.91;55.48
11692;BME280;33659;42.672;23.354;2023-02-19T05:10:33;94699.84;;;8.01;55.46
11692;BME280;33659;42.672;23.354;2023-02-19T05:13:00;94706.13;;;8.18;54.86
11692;BME280;33659;42.672;23.354;2023-02-19T05:15:26;94713.53;;;8.33;54.62
11692;BME280;33659;42.672;23.354;2023-02-19T05:17:53;94711.13;;;8.45;54.37
11692;BME280;33659;42.672;23.354;2023-02-19T05:20:20;94722.59;;;8.53;54.08
11692;BME280;33659;42.672;23.354;2023-02-19T05:22:47;94716.50;;;8.57;54.08
11692;BME280;33659;42.672;23.354;2023-02-19T05:25:14;94714.06;;;8.78;53.66
11692;BME280;33659;42.672;23.354;2023-02-19T05:27:42;94715.88;;;8.95;52.85
11692;BME280;33659;42.672;23.354;2023-02-19T05:30:10;94711.09;;;9.14;52.49
11692;BME280;33659;42.672;23.354;2023-02-19T05:32:37;94727.75;;;9.39;51.81
11692;BME280;33659;42.672;23.354;2023-02-19T05:35:04;94717.00;;;9.58;51.08
11692;BME280;33659;42.672;23.354;2023-02-19T05:37:31;94731.94;;;9.78;50.44
11692;BME280;33659;42.672;23.354;2023-02-19T05:39:57;94731.13;;;9.95;50.37
11692;BME280;33659;42.672;23.354;2023-02-19T05:42:24;94739.66;;;10.04;50.07
11692;BME280;33659;42.672;23.354;2023-02-19T05:44:52;94732.84;;;10.21;49.84
11692;BME280;33659;42.672;23.354;2023-02-19T05:47:19;94728.56;;;10.25;49.32
11692;BME280;33659;42.672;23.354;2023-02-19T05:49:45;94734.19;;;10.36;49.30
11692;BME280;33659;42.672;23.354;2023-02-19T05:52:12;94725.56;;;10.44;49.29
11692;BME280;33659;42.672;23.354;2023-02-19T05:54:39;94734.72;;;10.50;48.97
11692;BME280;33659;42.672;23.354;2023-02-19T05:57:05;94736.94;;;10.60;49.03
11692;BME280;33659;42.672;23.354;2023-02-19T05:59:32;94742.09;;;10.69;48.87
11692;BME280;33659;42.672;23.354;2023-02-19T06:02:00;94752.84;;;10.76;48.74
11692;BME280;33659;42.672;23.354;2023-02-19T06:04:27;94753.09;;;10.83;48.03
11692;BME280;33659;42.672;23.354;2023-02-19T06:06:53;94758.44;;;10.87;48.27
11692;BME280;33659;42.672;23.354;2023-02-19T06:09:20;94769.03;;;10.90;48.19
11692;BME280;33659;42.672;23.354;2023-02-19T06:11:47;94766.09;;;10.92;48.10
11692;BME280;33659;42.672;23.354;2023-02-19T06:14:13;94767.44;;;10.98;47.92
11692;BME280;33659;42.672;23.354;2023-02-19T06:16:40;94772.31;;;10.99;47.63
11692;BME280;33659;42.672;23.354;2023-02-19T06:19:09;94773.56;;;11.02;47.75
11692;BME280;33659;42.672;23.354;2023-02-19T06:21:35;94765.56;;;10.98;47.49
11692;BME280;33659;42.672;23.354;2023-02-19T06:24:06;94760.44;;;10.90;47.39
11692;BME280;33659;42.672;23.354;2023-02-19T06:26:33;94765.75;;;10.93;47.56
11692;BME280;33659;42.672;23.354;2023-02-19T06:29:00;94768.13;;;10.86;47.51
11692;BME280;33659;42.672;23.354;2023-02-19T06:31:26;94760.53;;;10.72;48.23
11692;BME280;33659;42.672;23.354;2023-02-19T06:33:53;94768.13;;;10.65;48.33
11692;BME280;33659;42.672;23.354;2023-02-19T06:36:22;94762.38;;;10.72;48.68
11692;BME280;33659;42.672;23.354;2023-02-19T06:38:49;94767.44;;;10.77;48.48
11692;BME280;33659;42.672;23.354;2023-02-19T06:41:16;94764.16;;;10.80;48.28
11692;BME280;33659;42.672;23.354;2023-02-19T06:43:42;94776.91;;;10.81;48.64
11692;BME280;33659;42.672;23.354;2023-02-19T06:46:11;94771.31;;;10.92;48.61
11692;BME280;33659;42.672;23.354;2023-02-19T06:48:39;94767.44;;;10.98;48.42
11692;BME280;33659;42.672;23.354;2023-02-19T06:51:06;94770.28;;;11.05;48.17
11692;BME280;33659;42.672;23.354;2023-02-19T06:53:34;94772.38;;;11.11;48.18
11692;BME280;33659;42.672;23.354;2023-02-19T06:56:04;94774.25;;;11.11;48.28
11692;BME280;33659;42.672;23.354;2023-02-19T06:58:31;94770.34;;;11.17;48.02
11692;BME280;33659;42.672;23.354;2023-02-19T07:00:58;94781.91;;;11.16;47.82
11692;BME280;33659;42.672;23.354;2023-02-19T07:03:25;94790.34;;;11.13;48.05
11692;BME280;33659;42.672;23.354;2023-02-19T07:05:52;94790.75;;;11.03;48.08
11692;BME280;33659;42.672;23.354;2023-02-19T07:08:19;94792.47;;;10.99;48.03
11692;BME280;33659;42.672;23.354;2023-02-19T07:10:53;94791.13;;;10.93;48.34
11692;BME280;33659;42.672;23.354;2023-02-19T07:13:20;94781.13;;;10.95;48.31
11692;BME280;33659;42.672;23.354;2023-02-19T07:15:47;94787.91;;;10.96;48.26
11692;BME280;33659;42.672;23.354;2023-02-19T07:18:13;94782.16;;;11.02;48.23
11692;BME280;33659;42.672;23.354;2023-02-19T07:20:40;94784.25;;;11.09;48.15
11692;BME280;33659;42.672;23.354;2023-02-19T07:23:07;94779.28;;;11.16;48.07
11692;BME280;33659;42.672;23.354;2023-02-19T07:25:33;94772.59;;;11.27;47.97
11692;BME280;33659;42.672;23.354;2023-02-19T07:28:01;94768.34;;;11.35;47.84
11692;BME280;33659;42.672;23.354;2023-02-19T07:30:28;94764.91;;;11.43;47.28
11692;BME280;33659;42.672;23.354;2023-02-19T07:32:55;94761.31;;;11.48;47.43
11692;BME280;33659;42.672;23.354;2023-02-19T07:35:21;94758.28;;;11.58;47.47
11692;BME280;33659;42.672;23.354;2023-02-19T07:37:48;94752.63;;;11.56;47.51
11692;BME280;33659;42.672;23.354;2023-02-19T07:40:15;94748.06;;;11.65;47.63
11692;BME280;33659;42.672;23.354;2023-02-19T07:42:41;94758.31;;;11.70;47.42
11692;BME280;33659;42.672;23.354;2023-02-19T07:45:09;94759.00;;;11.79;47.35
11692;BME280;33659;42.672;23.354;2023-02-19T07:47:36;94756.53;;;11.95;46.78
11692;BME280;33659;42.672;23.354;2023-02-19T07:50:03;94757.44;;;11.99;46.94
11692;BME280;33659;42.672;23.354;2023-02-19T07:52:30;94761.66;;;12.04;46.99
11692;BME280;33659;42.672;23.354;2023-02-19T07:54:58;94751.31;;;12.07;46.96
11692;BME280;33659;42.672;23.354;2023-02-19T07:57:26;94756.78;;;12.14;46.78
11692;BME280;33659;42.672;23.354;2023-02-19T07:59:53;94758.41;;;12.19;46.48
11692;BME280;33659;42.672;23.354;2023-02-19T08:02:21;94747.41;;;12.26;46.46
11692;BME280;33659;42.672;23.354;2023-02-19T08:05:05;94756.66;;;12.35;46.03
11692;BME280;33659;42.672;23.354;2023-02-19T08:07:33;94754.03;;;12.47;45.78
11692;BME280;33659;42.672;23.354;2023-02-19T08:10:00;94744.09;;;12.53;45.58
11692;BME280;33659;42.672;23.354;2023-02-19T08:12:41;94755.00;;;12.55;45.40
11692;BME280;33659;42.672;23.354;2023-02-19T08:15:25;94750.41;;;12.64;45.36
11692;BME280;33659;42.672;23.354;2023-02-19T08:17:53;94748.44;;;12.73;45.21
11692;BME280;33659;42.672;23.354;2023-02-19T08:20:20;94750.72;;;12.75;44.95
11692;BME280;33659;42.672;23.354;2023-02-19T08:22:47;94752.69;;;12.78;45.12
11692;BME280;33659;42.672;23.354;2023-02-19T08:25:13;94743.84;;;12.83;44.89
11692;BME280;33659;42.672;23.354;2023-02-19T08:27:40;94743.28;;;12.89;44.42
11692;BME280;33659;42.672;23.354;2023-02-19T08:30:07;94743.03;;;12.94;44.74
11692;BME280;33659;42.672;23.354;2023-02-19T08:32:34;94740.09;;;12.96;44.64
11692;BME280;33659;42.672;23.354;2023-02-19T08:35:03;94742.47;;;13.01;44.65
11692;BME280;33659;42.672;23.354;2023-02-19T08:37:29;94735.88;;;13.07;44.37
11692;BME280;33659;42.672;23.354;2023-02-19T08:39:56;94741.34;;;13.14;44.39
11692;BME280;33659;42.672;23.354;2023-02-19T08:42:23;94749.44;;;13.21;44.11
11692;BME280;33659;42.672;23.354;2023-02-19T08:44:49;94741.31;;;13.26;44.00
11692;BME280;33659;42.672;23.354;2023-02-19T08:47:16;94735.81;;;13.32;44.02
11692;BME280;33659;42.672;23.354;2023-02-19T08:49:43;94732.63;;;13.38;43.89
11692;BME280;33659;42.672;23.354;2023-02-19T08:52:11;94728.47;;;13.37;43.84
11692;BME280;33659;42.672;23.354;2023-02-19T08:54:37;94721.88;;;13.43;43.83
11692;BME280;33659;42.672;23.354;2023-02-19T08:57:04;94723.19;;;13.49;43.81
11692;BME280;33659;42.672;23.354;2023-02-19T08:59:31;94725.63;;;13.58;43.69
11692;BME280;33659;42.672;23.354;2023-02-19T09:01:58;94720.66;;;13.69;43.59
11692;BME280;33659;42.672;23.354;2023-02-19T09:04:24;94715.22;;;13.77;43.38
11692;BME280;33659;42.672;23.354;2023-02-19T09:06:51;94701.09;;;13.82;43.27
11692;BME280;33659;42.672;23.354;2023-02-19T09:09:19;94708.03;;;13.90;43.31
11692;BME280;33659;42.672;23.354;2023-02-19T09:11:46;94699.50;;;13.93;43.73
11692;BME280;33659;42.672;23.354;2023-02-19T09:14:12;94687.19;;;13.97;43.64
11692;BME280;33659;42.672;23.354;2023-02-19T09:16:39;94698.56;;;14.01;43.57
11692;BME280;33659;42.672;23.354;2023-02-19T09:19:06;94683.22;;;14.03;43.63
11692;BME280;33659;42.672;23.354;2023-02-19T09:21:32;94684.75;;;14.04;43.53
11692;BME280;33659;42.672;23.354;2023-02-19T09:23:59;94683.81;;;14.13;43.18
11692;BME280;33659;42.672;23.354;2023-02-19T09:26:27;94648.66;;;14.01;43.06
11692;BME280;33659;42.672;23.354;2023-02-19T09:28:54;94703.28;;;14.27;43.13
11692;BME280;33659;42.672;23.354;2023-02-19T09:31:20;94681.59;;;14.30;43.43
11692;BME280;33659;42.672;23.354;2023-02-19T09:33:47;94669.47;;;14.26;43.27
11692;BME280;33659;42.672;23.354;2023-02-19T09:36:15;94667.63;;;14.46;43.35
11692;BME280;33659;42.672;23.354;2023-02-19T09:38:43;94671.69;;;14.59;43.44
11692;BME280;33659;42.672;23.354;2023-02-19T09:41:15;94686.38;;;14.79;42.95
11692;BME280;33659;42.672;23.354;2023-02-19T09:43:43;94661.53;;;14.77;43.07
11692;BME280;33659;42.672;23.354;2023-02-19T09:46:21;94663.19;;;14.85;43.04
11692;BME280;33659;42.672;23.354;2023-02-19T09:48:50;94663.28;;;14.88;42.73
11692;BME280;33659;42.672;23.354;2023-02-19T09:51:17;94670.31;;;15.04;42.84
11692;BME280;33659;42.672;23.354;2023-02-19T09:53:48;94657.41;;;15.18;42.26
11692;BME280;33659;42.672;23.354;2023-02-19T09:56:16;94690.31;;;15.28;41.51
11692;BME280;33659;42.672;23.354;2023-02-19T09:58:46;94666.19;;;15.26;41.55
11692;BME280;33659;42.672;23.354;2023-02-19T10:01:14;94650.69;;;15.40;41.35
11692;BME280;33659;42.672;23.354;2023-02-19T10:03:43;94639.25;;;15.55;40.18
11692;BME280;33659;42.672;23.354;2023-02-19T10:06:15;94635.66;;;15.63;39.78
11692;BME280;33659;42.672;23.354;2023-02-19T10:08:45;94630.38;;;15.63;39.71
11692;BME280;33659;42.672;23.354;2023-02-19T10:11:13;94625.94;;;15.67;39.63
11692;BME280;33659;42.672;23.354;2023-02-19T10:13:42;94619.38;;;15.81;39.44
11692;BME280;33659;42.672;23.354;2023-02-19T10:16:13;94615.94;;;16.03;39.19
11692;BME280;33659;42.672;23.354;2023-02-19T10:18:43;94602.16;;;16.13;38.66
11692;BME280;33659;42.672;23.354;2023-02-19T10:21:13;94612.19;;;16.31;38.03
11692;BME280;33659;42.672;23.354;2023-02-19T10:23:42;94592.03;;;16.45;38.07
11692;BME280;33659;42.672;23.354;2023-02-19T10:26:09;94598.75;;;16.73;38.01
11692;BME280;33659;42.672;23.354;2023-02-19T10:28:36;94577.59;;;17.03;36.99
11692;BME280;33659;42.672;23.354;2023-02-19T10:31:06;94587.44;;;17.06;36.39
11692;BME280;33659;42.672;23.354;2023-02-19T10:33:47;94577.09;;;17.27;36.37
11692;BME280;33659;42.672;23.354;2023-02-19T10:36:27;94564.38;;;17.44;35.91
11692;BME280;33659;42.672;23.354;2023-02-19T10:38:55;94571.16;;;17.45;35.58
11692;BME280;33659;42.672;23.354;2023-02-19T10:41:23;94562.97;;;17.53;35.55
11692;BME280;33659;42.672;23.354;2023-02-19T10:43:53;94547.88;;;17.57;35.52
11692;BME280;33659;42.672;23.354;2023-02-19T10:46:22;94555.38;;;17.48;35.38
11692;BME280;33659;42.672;23.354;2023-02-19T10:48:53;94539.50;;;17.45;35.36
11692;BME280;33659;42.672;23.354;2023-02-19T10:51:24;94532.34;;;17.45;35.44
11692;BME280;33659;42.672;23.354;2023-02-19T10:54:03;94536.84;;;17.45;35.44
11692;BME280;33659;42.672;23.354;2023-02-19T10:56:30;94535.00;;;17.45;35.15
11692;BME280;33659;42.672;23.354;2023-02-19T10:59:14;94545.56;;;17.49;35.11
11692;BME280;33659;42.672;23.354;2023-02-19T11:01:55;94533.56;;;17.58;35.40
11692;BME280;33659;42.672;23.354;2023-02-19T11:04:25;94520.19;;;17.89;34.86
11692;BME280;33659;42.672;23.354;2023-02-19T11:06:52;94522.47;;;17.94;34.46
11692;BME280;33659;42.672;23.354;2023-02-19T11:09:24;94519.09;;;17.97;34.54
11692;BME280;33659;42.672;23.354;2023-02-19T11:11:53;94473.34;;;17.78;34.57
11692;BME280;33659;42.672;23.354;2023-02-19T11:14:22;94504.38;;;18.03;34.45
11692;BME280;33659;42.672;23.354;2023-02-19T11:16:51;94500.72;;;18.25;34.08
11692;BME280;33659;42.672;23.354;2023-02-19T11:19:27;94491.72;;;18.48;33.86
11692;BME280;33659;42.672;23.354;2023-02-19T11:21:55;94482.75;;;18.70;33.46
11692;BME280;33659;42.672;23.354;2023-02-19T11:24:25;94483.91;;;19.01;33.08
11692;BME280;33659;42.672;23.354;2023-02-19T11:26:54;94479.34;;;19.12;32.70
11692;BME280;33659;42.672;23.354;2023-02-19T11:29:22;94464.22;;;19.31;32.45
11692;BME280;33659;42.672;23.354;2023-02-19T11:31:53;94475.16;;;19.51;32.10
11692;BME280;33659;42.672;23.354;2023-02-19T11:34:29;94461.53;;;19.70;31.64
11692;BME280;33659;42.672;23.354;2023-02-19T11:37:11;94456.56;;;19.86;31.55
11692;BME280;33659;42.672;23.354;2023-02-19T11:39:40;94449.34;;;19.97;30.67
11692;BME280;33659;42.672;23.354;2023-02-19T11:42:27;94439.84;;;20.04;30.82
11692;BME280;33659;42.672;23.354;2023-02-19T11:45:18;94431.91;;;20.04;30.40
11692;BME280;33659;42.672;23.354;2023-02-19T11:48:05;94424.75;;;19.90;30.78
11692;BME280;33659;42.672;23.354;2023-02-19T11:50:49;94441.72;;;20.07;30.52
11692;BME280;33659;42.672;23.354;2023-02-19T11:53:24;94427.31;;;20.08;30.45
11692;BME280;33659;42.672;23.354;2023-02-19T11:56:02;94415.56;;;20.12;30.04
11692;BME280;33659;42.672;23.354;2023-02-19T11:58:55;94435.25;;;20.15;30.06
11692;BME280;33659;42.672;23.354;2023-02-19T12:01:33;94417.38;;;20.29;29.62
11692;BME280;33659;42.672;23.354;2023-02-19T12:04:38;94410.47;;;20.46;29.60
11692;BME280;33659;42.672;23.354;2023-02-19T12:07:20;94402.91;;;20.48;29.00
11692;BME280;33659;42.672;23.354;2023-02-19T12:09:59;94390.75;;;20.44;29.21
11692;BME280;33659;42.672;23.354;2023-02-19T12:12:41;94407.44;;;20.44;28.99
11692;BME280;33659;42.672;23.354;2023-02-19T12:15:38;94395.25;;;20.58;28.79
11692;BME280;33659;42.672;23.354;2023-02-19T12:18:28;94374.66;;;20.72;28.60
11692;BME280;33659;42.672;23.354;2023-02-19T12:21:08;94398.91;;;20.74;28.50
11692;BME280;33659;42.672;23.354;2023-02-19T12:23:59;94374.72;;;20.65;28.60
11692;BME280;33659;42.672;23.354;2023-02-19T12:26:39;94370.03;;;20.80;28.41
11692;BME280;33659;42.672;23.354;2023-02-19T12:29:23;94379.34;;;20.99;28.22
11692;BME280;33659;42.672;23.354;2023-02-19T12:32:19;94380.44;;;21.05;28.37
11692;BME280;33659;42.672;23.354;2023-02-19T12:35:02;94358.31;;;21.19;28.67
11692;BME280;33659;42.672;23.354;2023-02-19T12:37:42;94321.78;;;20.92;28.72
11692;BME280;33659;42.672;23.354;2023-02-19T12:40:28;94350.88;;;21.06;28.94
11692;BME280;33659;42.672;23.354;2023-02-19T12:43:08;94349.56;;;21.22;28.69
11692;BME280;33659;42.672;23.354;2023-02-19T12:45:41;94347.91;;;20.97;28.67
11692;BME280;33659;42.672;23.354;2023-02-19T12:48:16;94343.50;;;20.80;29.06
11692;BME280;33659;42.672;23.354;2023-02-19T12:50:46;94338.19;;;20.80;29.31
11692;BME280;33659;42.672;23.354;2023-02-19T12:53:27;94328.56;;;20.97;29.05
11692;BME280;33659;42.672;23.354;2023-02-19T12:56:00;94328.31;;;20.84;29.43
11692;BME280;33659;42.672;23.354;2023-02-19T12:58:36;94332.38;;;20.51;29.61
11692;BME280;33659;42.672;23.354;2023-02-19T13:01:04;94317.47;;;20.68;29.44
11692;BME280;33659;42.672;23.354;2023-02-19T13:03:36;94309.31;;;20.86;29.04
11692;BME280;33659;42.672;23.354;2023-02-19T13:06:10;94313.28;;;20.67;28.95
11692;BME280;33659;42.672;23.354;2023-02-19T13:08:44;94298.06;;;20.74;28.87
11692;BME280;33659;42.672;23.354;2023-02-19T13:11:17;94307.13;;;21.52;28.22
11692;BME280;33659;42.672;23.354;2023-02-19T13:13:48;94300.88;;;22.24;27.15